sensor_id;sensor_type;location;lat;lon;timestamp;P1;durP1;ratioP1;P2;durP2;ratioP2
39314;SDS011;28703;44.412;11.918;2023-02-03T00:00:18;20.45;;;13.57;;
39314;SDS011;28703;44.412;11.918;2023-02-03T00:10:43;17.20;;;11.75;;
39314;SDS011;28703;44.412;11.918;2023-02-03T00:24:23;22.25;;;12.82;;
39314;SDS011;28703;44.412;11.918;2023-02-03T00:27:20;20.60;;;11.70;;
39314;SDS011;28703;44.412;11.918;2023-02-03T00:30:25;20.30;;;13.05;;
39314;SDS011;28703;44.412;11.918;2023-02-03T00:33:41;19.50;;;13.85;;
39314;SDS011;28703;44.412;11.918;2023-02-03T00:36:07;19.65;;;13.20;;
39314;SDS011;28703;44.412;11.918;2023-02-03T00:48:51;18.92;;;13.70;;
39314;SDS011;28703;44.412;11.918;2023-02-03T00:51:24;18.02;;;13.07;;
39314;SDS011;28703;44.412;11.918;2023-02-03T00:54:15;18.73;;;12.77;;
39314;SDS011;28703;44.412;11.918;2023-02-03T00:57:24;21.80;;;15.00;;
39314;SDS011;28703;44.412;11.918;2023-02-03T01:07:30;23.17;;;13.95;;
39314;SDS011;28703;44.412;11.918;2023-02-03T01:10:43;20.90;;;14.05;;
39314;SDS011;28703;44.412;11.918;2023-02-03T01:14:17;18.77;;;12.60;;
39314;SDS011;28703;44.412;11.918;2023-02-03T01:17:37;20.85;;;14.07;;
39314;SDS011;28703;44.412;11.918;2023-02-03T01:20:56;24.17;;;14.48;;
39314;SDS011;28703;44.412;11.918;2023-02-03T01:23:31;20.65;;;15.07;;
39314;SDS011;28703;44.412;11.918;2023-02-03T01:27:00;20.15;;;14.82;;
39314;SDS011;28703;44.412;11.918;2023-02-03T01:29:53;25.83;;;14.63;;
39314;SDS011;28703;44.412;11.918;2023-02-03T01:40:46;19.38;;;13.45;;
39314;SDS011;28703;44.412;11.918;2023-02-03T01:43:38;23.15;;;14.75;;
39314;SDS011;28703;44.412;11.918;2023-02-03T01:47:17;20.67;;;14.45;;
39314;SDS011;28703;44.412;11.918;2023-02-03T02:08:31;22.25;;;14.40;;
39314;SDS011;28703;44.412;11.918;2023-02-03T02:11:44;18.55;;;14.45;;
39314;SDS011;28703;44.412;11.918;2023-02-03T02:31:11;21.67;;;13.32;;
39314;SDS011;28703;44.412;11.918;2023-02-03T02:46:24;22.60;;;13.60;;
39314;SDS011;28703;44.412;11.918;2023-02-03T02:56:57;20.25;;;14.30;;
39314;SDS011;28703;44.412;11.918;2023-02-03T02:59:52;18.20;;;13.48;;
39314;SDS011;28703;44.412;11.918;2023-02-03T03:02:47;17.83;;;13.70;;
39314;SDS011;28703;44.412;11.918;2023-02-03T03:05:28;21.45;;;14.38;;
39314;SDS011;28703;44.412;11.918;2023-02-03T03:08:13;23.30;;;14.48;;
39314;SDS011;28703;44.412;11.918;2023-02-03T03:14:03;20.52;;;14.23;;
39314;SDS011;28703;44.412;11.918;2023-02-03T03:17:20;21.83;;;14.65;;
39314;SDS011;28703;44.412;11.918;2023-02-03T03:24:06;28.55;;;16.35;;
39314;SDS011;28703;44.412;11.918;2023-02-03T03:27:24;22.40;;;14.35;;
39314;SDS011;28703;44.412;11.918;2023-02-03T03:33:56;24.00;;;14.65;;
39314;SDS011;28703;44.412;11.918;2023-02-03T03:40:07;22.15;;;14.52;;
39314;SDS011;28703;44.412;11.918;2023-02-03T03:43:12;22.13;;;14.77;;
39314;SDS011;28703;44.412;11.918;2023-02-03T03:45:59;21.25;;;14.82;;
39314;SDS011;28703;44.412;11.918;2023-02-03T03:53:59;22.08;;;14.60;;
39314;SDS011;28703;44.412;11.918;2023-02-03T03:59:43;24.15;;;15.88;;
39314;SDS011;28703;44.412;11.918;2023-02-03T04:02:37;25.33;;;16.23;;
39314;SDS011;28703;44.412;11.918;2023-02-03T04:05:25;22.85;;;15.40;;
39314;SDS011;28703;44.412;11.918;2023-02-03T04:08:28;27.98;;;14.70;;
39314;SDS011;28703;44.412;11.918;2023-02-03T04:11:14;20.05;;;14.82;;
39314;SDS011;28703;44.412;11.918;2023-02-03T04:14:06;26.88;;;16.08;;
39314;SDS011;28703;44.412;11.918;2023-02-03T04:16:32;20.83;;;15.25;;
39314;SDS011;28703;44.412;11.918;2023-02-03T04:18:58;22.08;;;15.45;;
39314;SDS011;28703;44.412;11.918;2023-02-03T04:21:27;20.67;;;16.35;;
39314;SDS011;28703;44.412;11.918;2023-02-03T04:27:00;21.65;;;15.35;;
39314;SDS011;28703;44.412;11.918;2023-02-03T04:29:33;22.17;;;15.23;;
39314;SDS011;28703;44.412;11.918;2023-02-03T04:32:04;25.17;;;16.40;;
39314;SDS011;28703;44.412;11.918;2023-02-03T04:34:30;22.42;;;15.63;;
39314;SDS011;28703;44.412;11.918;2023-02-03T04:36:59;23.17;;;16.05;;
39314;SDS011;28703;44.412;11.918;2023-02-03T04:39:43;25.88;;;16.65;;
39314;SDS011;28703;44.412;11.918;2023-02-03T04:42:27;24.25;;;16.45;;
39314;SDS011;28703;44.412;11.918;2023-02-03T04:44:53;23.05;;;17.70;;
39314;SDS011;28703;44.412;11.918;2023-02-03T04:47:22;27.05;;;17.65;;
39314;SDS011;28703;44.412;11.918;2023-02-03T04:50:25;24.98;;;18.90;;
39314;SDS011;28703;44.412;11.918;2023-02-03T04:53:13;25.88;;;16.48;;
39314;SDS011;28703;44.412;11.918;2023-02-03T04:55:39;27.17;;;16.80;;
39314;SDS011;28703;44.412;11.918;2023-02-03T04:58:05;30.73;;;18.60;;
39314;SDS011;28703;44.412;11.918;2023-02-03T05:00:34;27.48;;;17.10;;
39314;SDS011;28703;44.412;11.918;2023-02-03T05:03:02;28.73;;;17.65;;
39314;SDS011;28703;44.412;11.918;2023-02-03T05:05:28;28.60;;;17.90;;
39314;SDS011;28703;44.412;11.918;2023-02-03T05:07:54;30.15;;;17.33;;
39314;SDS011;28703;44.412;11.918;2023-02-03T05:10:23;26.25;;;18.10;;
39314;SDS011;28703;44.412;11.918;2023-02-03T05:13:08;32.63;;;19.80;;
39314;SDS011;28703;44.412;11.918;2023-02-03T05:15:36;36.67;;;20.92;;
39314;SDS011;28703;44.412;11.918;2023-02-03T05:18:02;28.25;;;20.15;;
39314;SDS011;28703;44.412;11.918;2023-02-03T05:20:34;34.72;;;21.75;;
39314;SDS011;28703;44.412;11.918;2023-02-03T05:23:00;33.15;;;20.75;;
39314;SDS011;28703;44.412;11.918;2023-02-03T05:25:32;31.48;;;21.45;;
39314;SDS011;28703;44.412;11.918;2023-02-03T05:28:01;31.88;;;22.42;;
39314;SDS011;28703;44.412;11.918;2023-02-03T05:30:26;31.30;;;20.77;;
39314;SDS011;28703;44.412;11.918;2023-02-03T05:32:55;29.88;;;20.88;;
39314;SDS011;28703;44.412;11.918;2023-02-03T05:35:39;30.50;;;20.00;;
39314;SDS011;28703;44.412;11.918;2023-02-03T05:38:05;31.92;;;19.92;;
39314;SDS011;28703;44.412;11.918;2023-02-03T05:40:37;32.33;;;20.00;;
39314;SDS011;28703;44.412;11.918;2023-02-03T05:43:30;36.55;;;20.70;;
39314;SDS011;28703;44.412;11.918;2023-02-03T05:51:16;27.70;;;19.15;;
39314;SDS011;28703;44.412;11.918;2023-02-03T05:53:42;31.73;;;19.67;;
39314;SDS011;28703;44.412;11.918;2023-02-03T05:56:11;29.73;;;19.35;;
39314;SDS011;28703;44.412;11.918;2023-02-03T05:58:37;40.03;;;19.55;;
39314;SDS011;28703;44.412;11.918;2023-02-03T06:01:04;23.42;;;18.75;;
39314;SDS011;28703;44.412;11.918;2023-02-03T06:03:49;29.73;;;18.55;;
39314;SDS011;28703;44.412;11.918;2023-02-03T06:06:15;29.90;;;18.55;;
39314;SDS011;28703;44.412;11.918;2023-02-03T06:08:50;30.08;;;18.63;;
39314;SDS011;28703;44.412;11.918;2023-02-03T06:11:25;30.17;;;19.13;;
39314;SDS011;28703;44.412;11.918;2023-02-03T06:13:57;35.35;;;19.88;;
39314;SDS011;28703;44.412;11.918;2023-02-03T06:16:24;28.45;;;20.65;;
39314;SDS011;28703;44.412;11.918;2023-02-03T06:18:51;25.48;;;19.17;;
39314;SDS011;28703;44.412;11.918;2023-02-03T06:21:36;29.58;;;19.35;;
39314;SDS011;28703;44.412;11.918;2023-02-03T06:24:02;25.33;;;19.50;;
39314;SDS011;28703;44.412;11.918;2023-02-03T06:26:50;27.13;;;18.95;;
39314;SDS011;28703;44.412;11.918;2023-02-03T06:29:16;31.15;;;19.83;;
39314;SDS011;28703;44.412;11.918;2023-02-03T06:31:48;29.20;;;18.98;;
39314;SDS011;28703;44.412;11.918;2023-02-03T06:34:14;25.48;;;19.08;;
39314;SDS011;28703;44.412;11.918;2023-02-03T06:37:14;35.28;;;21.00;;
39314;SDS011;28703;44.412;11.918;2023-02-03T06:42:28;30.50;;;18.02;;
39314;SDS011;28703;44.412;11.918;2023-02-03T06:45:06;28.90;;;18.90;;
39314;SDS011;28703;44.412;11.918;2023-02-03T06:48:05;26.20;;;18.42;;
39314;SDS011;28703;44.412;11.918;2023-02-03T06:50:53;37.33;;;20.35;;
39314;SDS011;28703;44.412;11.918;2023-02-03T06:53:19;35.92;;;24.63;;
39314;SDS011;28703;44.412;11.918;2023-02-03T06:56:32;33.75;;;20.48;;
39314;SDS011;28703;44.412;11.918;2023-02-03T06:58:59;34.40;;;20.63;;
39314;SDS011;28703;44.412;11.918;2023-02-03T07:01:48;33.45;;;20.90;;
39314;SDS011;28703;44.412;11.918;2023-02-03T07:04:19;35.22;;;24.70;;
39314;SDS011;28703;44.412;11.918;2023-02-03T07:09:31;46.70;;;23.38;;
39314;SDS011;28703;44.412;11.918;2023-02-03T07:15:30;39.15;;;21.63;;
39314;SDS011;28703;44.412;11.918;2023-02-03T07:17:56;34.45;;;20.20;;
39314;SDS011;28703;44.412;11.918;2023-02-03T07:23:48;37.13;;;20.48;;
39314;SDS011;28703;44.412;11.918;2023-02-03T07:26:33;33.08;;;21.20;;
39314;SDS011;28703;44.412;11.918;2023-02-03T07:28:59;34.15;;;21.08;;
39314;SDS011;28703;44.412;11.918;2023-02-03T07:31:25;39.03;;;22.52;;
39314;SDS011;28703;44.412;11.918;2023-02-03T07:34:00;49.58;;;25.40;;
39314;SDS011;28703;44.412;11.918;2023-02-03T07:36:32;48.65;;;23.58;;
39314;SDS011;28703;44.412;11.918;2023-02-03T07:39:02;48.78;;;21.60;;
39314;SDS011;28703;44.412;11.918;2023-02-03T07:41:36;38.75;;;20.27;;
39314;SDS011;28703;44.412;11.918;2023-02-03T07:44:22;34.40;;;21.25;;
39314;SDS011;28703;44.412;11.918;2023-02-03T07:46:50;38.17;;;22.13;;
39314;SDS011;28703;44.412;11.918;2023-02-03T07:49:16;40.35;;;24.35;;
39314;SDS011;28703;44.412;11.918;2023-02-03T07:51:49;36.03;;;25.63;;
39314;SDS011;28703;44.412;11.918;2023-02-03T07:54:26;30.38;;;20.35;;
39314;SDS011;28703;44.412;11.918;2023-02-03T07:57:34;33.88;;;19.83;;
39314;SDS011;28703;44.412;11.918;2023-02-03T08:00:11;33.08;;;19.80;;
39314;SDS011;28703;44.412;11.918;2023-02-03T08:05:25;30.65;;;20.83;;
39314;SDS011;28703;44.412;11.918;2023-02-03T08:08:05;28.38;;;18.80;;
39314;SDS011;28703;44.412;11.918;2023-02-03T08:10:42;29.77;;;18.73;;
39314;SDS011;28703;44.412;11.918;2023-02-03T08:13:16;40.78;;;21.38;;
39314;SDS011;28703;44.412;11.918;2023-02-03T08:15:51;44.60;;;22.85;;
39314;SDS011;28703;44.412;11.918;2023-02-03T08:18:24;34.50;;;23.15;;
39314;SDS011;28703;44.412;11.918;2023-02-03T08:23:43;34.40;;;21.80;;
39314;SDS011;28703;44.412;11.918;2023-02-03T08:29:19;42.78;;;26.20;;
39314;SDS011;28703;44.412;11.918;2023-02-03T08:31:45;47.03;;;28.83;;
39314;SDS011;28703;44.412;11.918;2023-02-03T08:34:19;44.42;;;28.73;;
39314;SDS011;28703;44.412;11.918;2023-02-03T08:36:50;52.28;;;34.35;;
39314;SDS011;28703;44.412;11.918;2023-02-03T08:39:19;45.80;;;33.35;;
39314;SDS011;28703;44.412;11.918;2023-02-03T08:44:40;51.45;;;37.08;;
39314;SDS011;28703;44.412;11.918;2023-02-03T08:47:08;47.55;;;35.47;;
39314;SDS011;28703;44.412;11.918;2023-02-03T08:52:32;49.38;;;39.13;;
39314;SDS011;28703;44.412;11.918;2023-02-03T08:55:06;52.65;;;40.15;;
39314;SDS011;28703;44.412;11.918;2023-02-03T08:57:35;58.65;;;44.60;;
39314;SDS011;28703;44.412;11.918;2023-02-03T09:01:04;57.88;;;44.92;;
39314;SDS011;28703;44.412;11.918;2023-02-03T09:03:39;60.45;;;46.10;;
39314;SDS011;28703;44.412;11.918;2023-02-03T09:06:08;58.65;;;46.50;;
39314;SDS011;28703;44.412;11.918;2023-02-03T09:08:37;56.08;;;46.55;;
39314;SDS011;28703;44.412;11.918;2023-02-03T09:11:16;54.90;;;45.05;;
39314;SDS011;28703;44.412;11.918;2023-02-03T09:14:04;61.67;;;50.13;;
39314;SDS011;28703;44.412;11.918;2023-02-03T09:16:31;62.22;;;48.58;;
39314;SDS011;28703;44.412;11.918;2023-02-03T09:24:47;66.03;;;49.88;;
39314;SDS011;28703;44.412;11.918;2023-02-03T09:27:18;61.03;;;52.05;;
39314;SDS011;28703;44.412;11.918;2023-02-03T09:29:51;62.08;;;53.63;;
39314;SDS011;28703;44.412;11.918;2023-02-03T09:32:22;70.10;;;56.20;;
39314;SDS011;28703;44.412;11.918;2023-02-03T09:45:28;66.63;;;55.22;;
39314;SDS011;28703;44.412;11.918;2023-02-03T09:48:13;61.13;;;50.80;;
39314;SDS011;28703;44.412;11.918;2023-02-03T09:51:09;68.18;;;52.63;;
39314;SDS011;28703;44.412;11.918;2023-02-03T10:01:02;70.25;;;54.72;;
39314;SDS011;28703;44.412;11.918;2023-02-03T10:28:33;53.72;;;41.80;;
39314;SDS011;28703;44.412;11.918;2023-02-03T10:31:13;59.20;;;44.28;;
39314;SDS011;28703;44.412;11.918;2023-02-03T10:40:31;50.35;;;38.55;;
39314;SDS011;28703;44.412;11.918;2023-02-03T10:46:14;65.03;;;43.30;;
39314;SDS011;28703;44.412;11.918;2023-02-03T10:52:32;58.75;;;43.40;;
39314;SDS011;28703;44.412;11.918;2023-02-03T10:55:07;60.67;;;45.35;;
39314;SDS011;28703;44.412;11.918;2023-02-03T10:57:55;61.22;;;46.90;;
39314;SDS011;28703;44.412;11.918;2023-02-03T11:00:47;56.75;;;45.53;;
39314;SDS011;28703;44.412;11.918;2023-02-03T11:03:58;61.17;;;46.53;;
39314;SDS011;28703;44.412;11.918;2023-02-03T11:09:39;68.85;;;52.00;;
39314;SDS011;28703;44.412;11.918;2023-02-03T11:12:19;65.90;;;48.22;;
39314;SDS011;28703;44.412;11.918;2023-02-03T11:15:16;71.28;;;51.45;;
39314;SDS011;28703;44.412;11.918;2023-02-03T11:18:25;79.10;;;53.25;;
39314;SDS011;28703;44.412;11.918;2023-02-03T11:20:59;82.50;;;55.13;;
39314;SDS011;28703;44.412;11.918;2023-02-03T11:23:33;85.63;;;58.50;;
39314;SDS011;28703;44.412;11.918;2023-02-03T11:29:28;90.45;;;59.05;;
39314;SDS011;28703;44.412;11.918;2023-02-03T11:43:01;102.28;;;60.97;;
39314;SDS011;28703;44.412;11.918;2023-02-03T11:45:37;103.18;;;61.53;;
39314;SDS011;28703;44.412;11.918;2023-02-03T12:25:59;103.57;;;60.63;;
39314;SDS011;28703;44.412;11.918;2023-02-03T12:32:53;103.22;;;65.82;;
39314;SDS011;28703;44.412;11.918;2023-02-03T12:42:40;117.45;;;73.20;;
39314;SDS011;28703;44.412;11.918;2023-02-03T12:49:39;115.47;;;73.85;;
39314;SDS011;28703;44.412;11.918;2023-02-03T12:55:27;117.22;;;75.40;;
39314;SDS011;28703;44.412;11.918;2023-02-03T12:58:12;128.80;;;79.47;;
39314;SDS011;28703;44.412;11.918;2023-02-03T13:01:04;130.55;;;80.63;;
39314;SDS011;28703;44.412;11.918;2023-02-03T13:13:46;139.82;;;85.25;;
39314;SDS011;28703;44.412;11.918;2023-02-03T13:22:08;146.27;;;91.43;;
39314;SDS011;28703;44.412;11.918;2023-02-03T13:24:51;136.68;;;87.75;;
39314;SDS011;28703;44.412;11.918;2023-02-03T13:30:13;142.65;;;88.68;;
39314;SDS011;28703;44.412;11.918;2023-02-03T13:33:06;132.57;;;83.93;;
39314;SDS011;28703;44.412;11.918;2023-02-03T13:44:50;109.45;;;71.32;;
39314;SDS011;28703;44.412;11.918;2023-02-03T13:47:23;110.45;;;72.40;;
39314;SDS011;28703;44.412;11.918;2023-02-03T13:50:04;106.95;;;66.88;;
39314;SDS011;28703;44.412;11.918;2023-02-03T13:52:37;103.55;;;66.63;;
39314;SDS011;28703;44.412;11.918;2023-02-03T13:55:38;95.55;;;62.45;;
39314;SDS011;28703;44.412;11.918;2023-02-03T13:58:41;106.40;;;65.70;;
39314;SDS011;28703;44.412;11.918;2023-02-03T14:01:06;95.38;;;62.53;;
39314;SDS011;28703;44.412;11.918;2023-02-03T14:09:37;91.10;;;60.03;;
39314;SDS011;28703;44.412;11.918;2023-02-03T14:12:30;88.68;;;59.63;;
39314;SDS011;28703;44.412;11.918;2023-02-03T14:25:29;87.80;;;56.55;;
39314;SDS011;28703;44.412;11.918;2023-02-03T14:28:11;79.22;;;53.53;;
39314;SDS011;28703;44.412;11.918;2023-02-03T14:36:32;70.78;;;48.83;;
39314;SDS011;28703;44.412;11.918;2023-02-03T14:41:56;67.80;;;45.58;;
39314;SDS011;28703;44.412;11.918;2023-02-03T14:44:37;64.97;;;43.63;;
39314;SDS011;28703;44.412;11.918;2023-02-03T15:00:46;47.35;;;31.85;;
39314;SDS011;28703;44.412;11.918;2023-02-03T15:03:32;54.58;;;33.58;;
39314;SDS011;28703;44.412;11.918;2023-02-03T15:06:00;52.53;;;35.17;;
39314;SDS011;28703;44.412;11.918;2023-02-03T15:08:47;48.75;;;31.65;;
39314;SDS011;28703;44.412;11.918;2023-02-03T15:11:14;51.95;;;34.83;;
39314;SDS011;28703;44.412;11.918;2023-02-03T15:13:40;54.95;;;38.80;;
39314;SDS011;28703;44.412;11.918;2023-02-03T15:16:11;54.85;;;38.20;;
39314;SDS011;28703;44.412;11.918;2023-02-03T15:21:47;58.22;;;42.28;;
39314;SDS011;28703;44.412;11.918;2023-02-03T15:24:14;60.60;;;44.88;;
39314;SDS011;28703;44.412;11.918;2023-02-03T15:26:53;61.88;;;43.55;;
39314;SDS011;28703;44.412;11.918;2023-02-03T15:29:38;69.28;;;44.40;;
39314;SDS011;28703;44.412;11.918;2023-02-03T15:32:06;68.80;;;44.22;;
39314;SDS011;28703;44.412;11.918;2023-02-03T15:34:59;57.08;;;40.80;;
39314;SDS011;28703;44.412;11.918;2023-02-03T15:37:54;64.72;;;42.90;;
39314;SDS011;28703;44.412;11.918;2023-02-03T15:43:29;62.38;;;43.38;;
39314;SDS011;28703;44.412;11.918;2023-02-03T15:49:12;60.92;;;41.70;;
39314;SDS011;28703;44.412;11.918;2023-02-03T15:51:58;65.50;;;43.40;;
39314;SDS011;28703;44.412;11.918;2023-02-03T15:54:32;60.78;;;41.63;;
39314;SDS011;28703;44.412;11.918;2023-02-03T15:57:06;64.63;;;42.58;;
39314;SDS011;28703;44.412;11.918;2023-02-03T16:00:11;61.08;;;42.33;;
39314;SDS011;28703;44.412;11.918;2023-02-03T16:02:45;66.97;;;45.53;;
39314;SDS011;28703;44.412;11.918;2023-02-03T16:05:33;78.55;;;48.55;;
39314;SDS011;28703;44.412;11.918;2023-02-03T16:13:52;83.22;;;52.00;;
39314;SDS011;28703;44.412;11.918;2023-02-03T16:16:40;75.93;;;47.03;;
39314;SDS011;28703;44.412;11.918;2023-02-03T16:19:20;75.78;;;47.30;;
39314;SDS011;28703;44.412;11.918;2023-02-03T16:21:56;76.43;;;48.08;;
39314;SDS011;28703;44.412;11.918;2023-02-03T16:24:43;78.40;;;51.05;;
39314;SDS011;28703;44.412;11.918;2023-02-03T16:33:37;84.45;;;52.95;;
39314;SDS011;28703;44.412;11.918;2023-02-03T16:36:10;105.40;;;66.27;;
39314;SDS011;28703;44.412;11.918;2023-02-03T16:38:56;86.30;;;52.53;;
39314;SDS011;28703;44.412;11.918;2023-02-03T16:41:44;83.60;;;53.75;;
39314;SDS011;28703;44.412;11.918;2023-02-03T16:44:29;92.30;;;60.53;;
39314;SDS011;28703;44.412;11.918;2023-02-03T16:47:23;107.65;;;72.78;;
39314;SDS011;28703;44.412;11.918;2023-02-03T16:50:13;109.88;;;72.25;;
39314;SDS011;28703;44.412;11.918;2023-02-03T16:53:13;103.40;;;64.43;;
39314;SDS011;28703;44.412;11.918;2023-02-03T16:55:57;102.93;;;64.63;;
39314;SDS011;28703;44.412;11.918;2023-02-03T16:59:01;90.32;;;55.47;;
39314;SDS011;28703;44.412;11.918;2023-02-03T17:01:32;91.55;;;54.63;;
39314;SDS011;28703;44.412;11.918;2023-02-03T17:04:10;85.20;;;53.53;;
39314;SDS011;28703;44.412;11.918;2023-02-03T17:07:04;87.43;;;53.47;;
39314;SDS011;28703;44.412;11.918;2023-02-03T17:09:42;97.07;;;55.50;;
39314;SDS011;28703;44.412;11.918;2023-02-03T17:12:08;89.75;;;55.63;;
39314;SDS011;28703;44.412;11.918;2023-02-03T17:15:01;97.00;;;57.28;;
39314;SDS011;28703;44.412;11.918;2023-02-03T17:17:33;96.57;;;57.58;;
39314;SDS011;28703;44.412;11.918;2023-02-03T17:22:44;100.40;;;56.25;;
39314;SDS011;28703;44.412;11.918;2023-02-03T17:25:10;95.63;;;58.35;;
39314;SDS011;28703;44.412;11.918;2023-02-03T17:27:36;98.88;;;58.67;;
39314;SDS011;28703;44.412;11.918;2023-02-03T17:30:03;105.63;;;64.10;;
39314;SDS011;28703;44.412;11.918;2023-02-03T17:32:29;115.05;;;66.38;;
39314;SDS011;28703;44.412;11.918;2023-02-03T17:34:58;104.88;;;64.90;;
39314;SDS011;28703;44.412;11.918;2023-02-03T17:37:30;105.18;;;68.32;;
39314;SDS011;28703;44.412;11.918;2023-02-03T17:42:52;101.72;;;66.15;;
39314;SDS011;28703;44.412;11.918;2023-02-03T17:45:48;102.05;;;61.85;;
39314;SDS011;28703;44.412;11.918;2023-02-03T17:48:14;97.32;;;61.92;;
39314;SDS011;28703;44.412;11.918;2023-02-03T17:50:40;102.65;;;67.10;;
39314;SDS011;28703;44.412;11.918;2023-02-03T17:53:24;111.72;;;71.47;;
39314;SDS011;28703;44.412;11.918;2023-02-03T17:56:17;105.13;;;69.68;;
39314;SDS011;28703;44.412;11.918;2023-02-03T17:59:04;107.93;;;70.32;;
39314;SDS011;28703;44.412;11.918;2023-02-03T18:01:49;108.43;;;64.55;;
39314;SDS011;28703;44.412;11.918;2023-02-03T18:04:14;99.03;;;64.60;;
39314;SDS011;28703;44.412;11.918;2023-02-03T18:06:41;102.82;;;65.28;;
39314;SDS011;28703;44.412;11.918;2023-02-03T18:09:25;124.15;;;79.60;;
39314;SDS011;28703;44.412;11.918;2023-02-03T18:11:51;115.32;;;73.38;;
39314;SDS011;28703;44.412;11.918;2023-02-03T18:14:16;114.97;;;69.90;;
39314;SDS011;28703;44.412;11.918;2023-02-03T18:17:01;102.25;;;67.97;;
39314;SDS011;28703;44.412;11.918;2023-02-03T18:19:46;120.60;;;73.70;;
39314;SDS011;28703;44.412;11.918;2023-02-03T18:22:13;124.47;;;71.40;;
39314;SDS011;28703;44.412;11.918;2023-02-03T18:24:45;126.80;;;74.90;;
39314;SDS011;28703;44.412;11.918;2023-02-03T18:27:34;119.57;;;74.95;;
39314;SDS011;28703;44.412;11.918;2023-02-03T18:36:17;119.78;;;72.15;;
39314;SDS011;28703;44.412;11.918;2023-02-03T18:39:21;120.13;;;71.85;;
39314;SDS011;28703;44.412;11.918;2023-02-03T18:45:36;123.95;;;75.18;;
39314;SDS011;28703;44.412;11.918;2023-02-03T18:48:05;123.70;;;76.38;;
39314;SDS011;28703;44.412;11.918;2023-02-03T18:50:31;144.82;;;90.05;;
39314;SDS011;28703;44.412;11.918;2023-02-03T18:53:16;133.63;;;79.55;;
39314;SDS011;28703;44.412;11.918;2023-02-03T18:55:42;127.97;;;80.45;;
39314;SDS011;28703;44.412;11.918;2023-02-03T18:58:41;138.27;;;87.72;;
39314;SDS011;28703;44.412;11.918;2023-02-03T19:01:08;123.82;;;79.03;;
39314;SDS011;28703;44.412;11.918;2023-02-03T19:03:34;122.47;;;78.32;;
39314;SDS011;28703;44.412;11.918;2023-02-03T19:06:00;127.32;;;80.75;;
39314;SDS011;28703;44.412;11.918;2023-02-03T19:08:26;125.03;;;81.68;;
39314;SDS011;28703;44.412;11.918;2023-02-03T19:10:52;133.68;;;79.25;;
39314;SDS011;28703;44.412;11.918;2023-02-03T19:13:19;124.82;;;74.95;;
39314;SDS011;28703;44.412;11.918;2023-02-03T19:15:48;132.40;;;80.88;;
39314;SDS011;28703;44.412;11.918;2023-02-03T19:18:38;131.13;;;78.30;;
39314;SDS011;28703;44.412;11.918;2023-02-03T19:21:05;124.05;;;75.50;;
39314;SDS011;28703;44.412;11.918;2023-02-03T19:23:31;128.55;;;75.55;;
39314;SDS011;28703;44.412;11.918;2023-02-03T19:25:58;130.57;;;82.53;;
39314;SDS011;28703;44.412;11.918;2023-02-03T19:28:25;122.55;;;75.82;;
39314;SDS011;28703;44.412;11.918;2023-02-03T19:30:51;139.93;;;86.00;;
39314;SDS011;28703;44.412;11.918;2023-02-03T19:33:17;145.27;;;90.05;;
39314;SDS011;28703;44.412;11.918;2023-02-03T19:39:17;151.55;;;86.68;;
39314;SDS011;28703;44.412;11.918;2023-02-03T19:44:48;128.68;;;81.38;;
39314;SDS011;28703;44.412;11.918;2023-02-03T19:47:15;134.68;;;80.07;;
39314;SDS011;28703;44.412;11.918;2023-02-03T19:49:41;131.77;;;80.43;;
39314;SDS011;28703;44.412;11.918;2023-02-03T19:52:07;121.95;;;75.43;;
39314;SDS011;28703;44.412;11.918;2023-02-03T19:54:34;124.60;;;76.07;;
39314;SDS011;28703;44.412;11.918;2023-02-03T19:57:00;132.88;;;77.30;;
39314;SDS011;28703;44.412;11.918;2023-02-03T20:00:29;124.28;;;72.47;;
39314;SDS011;28703;44.412;11.918;2023-02-03T20:02:56;123.75;;;75.97;;
39314;SDS011;28703;44.412;11.918;2023-02-03T20:05:24;116.82;;;71.47;;
39314;SDS011;28703;44.412;11.918;2023-02-03T20:07:54;109.53;;;71.25;;
39314;SDS011;28703;44.412;11.918;2023-02-03T20:10:38;113.65;;;70.07;;
39314;SDS011;28703;44.412;11.918;2023-02-03T20:13:48;106.88;;;65.57;;
39314;SDS011;28703;44.412;11.918;2023-02-03T20:16:15;101.25;;;63.63;;
39314;SDS011;28703;44.412;11.918;2023-02-03T20:18:44;99.00;;;62.55;;
39314;SDS011;28703;44.412;11.918;2023-02-03T20:21:10;95.13;;;57.13;;
39314;SDS011;28703;44.412;11.918;2023-02-03T20:23:57;101.93;;;58.00;;
39314;SDS011;28703;44.412;11.918;2023-02-03T20:26:24;96.57;;;58.40;;
39314;SDS011;28703;44.412;11.918;2023-02-03T20:31:34;92.57;;;55.60;;
39314;SDS011;28703;44.412;11.918;2023-02-03T20:34:00;96.18;;;55.95;;
39314;SDS011;28703;44.412;11.918;2023-02-03T20:36:28;83.40;;;52.15;;
39314;SDS011;28703;44.412;11.918;2023-02-03T20:38:54;83.25;;;50.60;;
39314;SDS011;28703;44.412;11.918;2023-02-03T20:41:20;85.13;;;52.78;;
39314;SDS011;28703;44.412;11.918;2023-02-03T20:43:49;77.32;;;50.05;;
39314;SDS011;28703;44.412;11.918;2023-02-03T20:46:16;82.63;;;49.40;;
39314;SDS011;28703;44.412;11.918;2023-02-03T20:48:45;77.05;;;47.17;;
39314;SDS011;28703;44.412;11.918;2023-02-03T20:51:15;74.57;;;46.17;;
39314;SDS011;28703;44.412;11.918;2023-02-03T20:53:43;75.75;;;44.80;;
39314;SDS011;28703;44.412;11.918;2023-02-03T20:56:18;72.32;;;44.67;;
39314;SDS011;28703;44.412;11.918;2023-02-03T20:58:46;66.88;;;40.85;;
39314;SDS011;28703;44.412;11.918;2023-02-03T21:01:16;67.85;;;40.97;;
39314;SDS011;28703;44.412;11.918;2023-02-03T21:03:44;69.85;;;40.90;;
39314;SDS011;28703;44.412;11.918;2023-02-03T21:06:32;66.20;;;41.78;;
39314;SDS011;28703;44.412;11.918;2023-02-03T21:11:39;68.78;;;39.47;;
39314;SDS011;28703;44.412;11.918;2023-02-03T21:17:12;69.22;;;43.22;;
39314;SDS011;28703;44.412;11.918;2023-02-03T21:19:50;66.65;;;40.50;;
39314;SDS011;28703;44.412;11.918;2023-02-03T21:25:00;67.03;;;40.15;;
39314;SDS011;28703;44.412;11.918;2023-02-03T21:27:38;64.47;;;40.25;;
39314;SDS011;28703;44.412;11.918;2023-02-03T21:40:25;67.72;;;44.50;;
39314;SDS011;28703;44.412;11.918;2023-02-03T21:43:38;73.47;;;44.05;;
39314;SDS011;28703;44.412;11.918;2023-02-03T21:46:32;54.75;;;36.78;;
39314;SDS011;28703;44.412;11.918;2023-02-03T21:49:08;61.78;;;40.10;;
39314;SDS011;28703;44.412;11.918;2023-02-03T21:51:55;60.28;;;39.05;;
39314;SDS011;28703;44.412;11.918;2023-02-03T21:57:00;41.75;;;26.52;;
39314;SDS011;28703;44.412;11.918;2023-02-03T21:59:40;33.72;;;22.27;;
39314;SDS011;28703;44.412;11.918;2023-02-03T22:08:56;33.47;;;20.00;;
39314;SDS011;28703;44.412;11.918;2023-02-03T22:11:56;30.35;;;18.95;;
39314;SDS011;28703;44.412;11.918;2023-02-03T22:14:32;29.20;;;20.25;;
39314;SDS011;28703;44.412;11.918;2023-02-03T22:16:59;26.17;;;18.40;;
39314;SDS011;28703;44.412;11.918;2023-02-03T22:19:29;42.92;;;29.35;;
39314;SDS011;28703;44.412;11.918;2023-02-03T22:22:00;55.17;;;32.50;;
39314;SDS011;28703;44.412;11.918;2023-02-03T22:24:29;50.72;;;33.80;;